createdAt,value
2023-04-05T00:00:54.861Z,99511.31
2023-04-05T00:04:06.207Z,99493.41
2023-04-05T00:05:39.563Z,99510.47
2023-04-05T00:07:12.821Z,99511.34
2023-04-05T00:08:50.350Z,99507.91
2023-04-05T00:10:22.468Z,99508.78
2023-04-05T00:11:54.687Z,99508.75
2023-04-05T00:13:27.236Z,99512.19
2023-04-05T00:14:59.432Z,99515.63
2023-04-05T00:16:31.645Z,99510.47
2023-04-05T00:18:06.734Z,99507.03
2023-04-05T00:19:39.734Z,99501.91
2023-04-05T00:21:12.169Z,99509.63
2023-04-05T00:22:45.076Z,99513.88
2023-04-05T00:24:17.240Z,99501.91
2023-04-05T00:25:49.297Z,99500.19
2023-04-05T00:27:21.615Z,99505.31
2023-04-05T00:28:53.819Z,99505.31
2023-04-05T00:30:25.927Z,99500.19
2023-04-05T00:31:58.083Z,99499.34
2023-04-05T00:33:30.158Z,99502.75
2023-04-05T00:35:02.271Z,99502.75
2023-04-05T00:36:34.414Z,99498.50
2023-04-05T00:38:06.502Z,99502.75
2023-04-05T00:39:39.877Z,99501.88
2023-04-05T00:41:12.956Z,99494.19
2023-04-05T00:42:45.275Z,99497.63
2023-04-05T00:44:18.107Z,99498.47
2023-04-05T00:45:50.484Z,99502.75
2023-04-05T00:47:22.729Z,99502.75
2023-04-05T00:48:55.075Z,99500.19
2023-04-05T00:50:31.302Z,99495.06
2023-04-05T00:52:04.393Z,99496.78
2023-04-05T00:53:36.680Z,99491.63
2023-04-05T00:55:09.523Z,99497.63
2023-04-05T00:56:42.035Z,99495.06
2023-04-05T00:58:15.026Z,99484.81
2023-04-05T00:59:47.075Z,99495.91
2023-04-05T01:01:22.763Z,99494.19
2023-04-05T01:03:02.282Z,99487.34
2023-04-05T01:04:37.110Z,99485.66
2023-04-05T01:06:18.351Z,99491.63
2023-04-05T01:07:56.747Z,99493.34
2023-04-05T01:09:46.215Z,99486.47
2023-04-05T01:11:18.844Z,99485.63
2023-04-05T01:12:51.374Z,99489.06
2023-04-05T01:14:23.452Z,99486.50
2023-04-05T01:15:55.887Z,99477.94
2023-04-05T01:17:34.411Z,99483.94
2023-04-05T01:19:06.774Z,99481.38
2023-04-05T01:20:43.480Z,99474.50
2023-04-05T01:22:38.408Z,99477.06
2023-04-05T01:24:43.031Z,99477.03
2023-04-05T01:26:18.196Z,99477.91
2023-04-05T01:28:24.037Z,99477.88
2023-04-05T01:30:08.121Z,99471.91
2023-04-05T01:31:54.441Z,99478.72
2023-04-05T01:33:36.313Z,99477.03
2023-04-05T01:35:23.590Z,99480.47
2023-04-05T01:36:58.644Z,99478.75
2023-04-05T01:38:31.939Z,99472.75
2023-04-05T01:40:05.316Z,99479.63
2023-04-05T01:41:39.607Z,99473.63
2023-04-05T01:43:18.228Z,99474.47
2023-04-05T01:44:51.416Z,99476.19
2023-04-05T01:46:23.572Z,99472.78
2023-04-05T01:47:55.858Z,99482.19
2023-04-05T01:49:27.950Z,99482.16
2023-04-05T01:51:00.011Z,99477.91
2023-04-05T01:52:32.121Z,99478.75
2023-04-05T01:54:04.361Z,99471.94
2023-04-05T01:55:36.600Z,99465.94
2023-04-05T01:57:08.679Z,99468.50
2023-04-05T01:58:41.018Z,99464.22
2023-04-05T02:00:13.891Z,99466.78
2023-04-05T02:01:46.273Z,99457.41
2023-04-05T02:03:18.454Z,99466.81
2023-04-05T02:04:50.742Z,99467.66
2023-04-05T02:06:23.513Z,99468.53
2023-04-05T02:07:55.754Z,99468.53
2023-04-05T02:09:27.767Z,99471.94
2023-04-05T02:10:59.832Z,99470.22
2023-04-05T02:12:32.054Z,99464.25
2023-04-05T02:14:04.615Z,99474.50
2023-04-05T02:15:36.736Z,99470.22
2023-04-05T02:17:08.799Z,99471.94
2023-04-05T02:18:40.851Z,99471.06
2023-04-05T02:20:14.911Z,99471.06
2023-04-05T02:21:48.243Z,99473.63
2023-04-05T02:23:21.304Z,99469.38
2023-04-05T02:24:53.356Z,99471.94
2023-04-05T02:26:25.450Z,99475.38
2023-04-05T02:27:57.702Z,99471.09
2023-04-05T02:29:29.820Z,99480.53
2023-04-05T02:31:01.952Z,99479.66
2023-04-05T02:32:34.366Z,99473.69
2023-04-05T02:34:09.560Z,99489.06
2023-04-05T02:35:41.774Z,99482.25
2023-04-05T02:37:13.971Z,99485.66
2023-04-05T02:38:46.073Z,99482.25
2023-04-05T02:40:18.479Z,99484.81
2023-04-05T02:41:50.696Z,99485.66
2023-04-05T02:43:22.742Z,99483.06
2023-04-05T02:44:54.830Z,99477.09
2023-04-05T02:46:27.005Z,99488.22
2023-04-05T02:47:59.156Z,99477.94
2023-04-05T02:49:31.244Z,99475.38
2023-04-05T02:51:03.358Z,99476.22
2023-04-05T02:52:35.503Z,99478.81
2023-04-05T02:54:07.590Z,99477.06
2023-04-05T02:55:42.425Z,99475.38
2023-04-05T02:57:14.489Z,99475.38
2023-04-05T02:58:49.235Z,99473.66
2023-04-05T03:00:22.719Z,99477.09
2023-04-05T03:01:54.917Z,99479.63
2023-04-05T03:03:27.022Z,99478.78
2023-04-05T03:05:02.700Z,99481.34
2023-04-05T03:06:34.792Z,99485.66
2023-04-05T03:08:07.295Z,99483.09
2023-04-05T03:09:40.282Z,99482.22
2023-04-05T03:11:12.859Z,99483.94
2023-04-05T03:12:46.576Z,99483.06
2023-04-05T03:14:18.733Z,99483.94
2023-04-05T03:15:54.976Z,99486.50
2023-04-05T03:17:27.507Z,99477.94
2023-04-05T03:19:00.458Z,99477.06
2023-04-05T03:20:35.299Z,99482.22
2023-04-05T03:22:08.041Z,99481.38
2023-04-05T03:23:40.129Z,99481.38
2023-04-05T03:25:12.286Z,99485.63
2023-04-05T03:26:46.335Z,99476.22
2023-04-05T03:28:18.828Z,99484.75
2023-04-05T03:29:50.967Z,99480.47
2023-04-05T03:31:23.175Z,99483.06
2023-04-05T03:32:58.423Z,99475.34
2023-04-05T03:34:30.540Z,99477.06
2023-04-05T03:37:35.354Z,99478.78
2023-04-05T03:39:07.866Z,99483.09
2023-04-05T03:40:40.359Z,99483.09
2023-04-05T03:42:15.452Z,99482.25
2023-04-05T03:43:47.599Z,99480.50
2023-04-05T03:45:23.920Z,99477.94
2023-04-05T03:46:56.779Z,99477.94
2023-04-05T03:48:28.907Z,99465.94
2023-04-05T03:50:03.006Z,99468.53
2023-04-05T03:51:35.310Z,99471.94
2023-04-05T03:53:07.415Z,99472.78
2023-04-05T03:54:41.298Z,99465.94
2023-04-05T03:56:13.430Z,99481.34
2023-04-05T03:57:45.727Z,99472.75
2023-04-05T03:59:17.862Z,99471.91
2023-04-05T04:00:50.865Z,99475.31
2023-04-05T04:02:23.085Z,99471.91
2023-04-05T04:03:55.231Z,99471.91
2023-04-05T04:05:27.363Z,99478.75
2023-04-05T04:06:59.534Z,99481.31
2023-04-05T04:08:31.863Z,99486.50
2023-04-05T04:10:07.318Z,99495.00
2023-04-05T04:11:39.372Z,99491.63
2023-04-05T04:13:11.497Z,99489.06
2023-04-05T04:14:43.747Z,99483.03
2023-04-05T04:16:16.479Z,99489.91
2023-04-05T04:17:48.662Z,99489.91
2023-04-05T04:19:20.955Z,99492.47
2023-04-05T04:20:53.074Z,99494.16
2023-04-05T04:22:33.688Z,99490.72
2023-04-05T04:24:06.654Z,99494.16
2023-04-05T04:25:38.994Z,99496.72
2023-04-05T04:27:11.623Z,99491.56
2023-04-05T04:28:44.245Z,99504.41
2023-04-05T04:30:16.554Z,99498.41
2023-04-05T04:31:48.845Z,99501.81
2023-04-05T04:33:21.020Z,99506.09
2023-04-05T04:34:54.917Z,99508.66
2023-04-05T04:36:36.674Z,99505.22
2023-04-05T04:38:09.152Z,99499.22
2023-04-05T04:39:45.528Z,99506.09
2023-04-05T04:41:20.582Z,99504.38
2023-04-05T04:42:52.777Z,99506.94
2023-04-05T04:44:31.609Z,99500.91
2023-04-05T04:46:07.040Z,99504.34
2023-04-05T04:47:39.144Z,99498.34
2023-04-05T04:49:11.416Z,99503.47
2023-04-05T04:50:47.093Z,99499.16
2023-04-05T04:52:19.184Z,99500.03
2023-04-05T04:53:51.389Z,99505.16
2023-04-05T04:55:25.712Z,99505.97
2023-04-05T04:56:58.199Z,99500.00
2023-04-05T04:58:30.611Z,99501.69
2023-04-05T05:00:02.941Z,99500.84
2023-04-05T05:01:35.243Z,99507.66
2023-04-05T05:03:08.810Z,99503.41
2023-04-05T05:04:41.966Z,99510.28
2023-04-05T05:06:17.906Z,99505.16
2023-04-05T05:07:50.972Z,99500.88
2023-04-05T05:09:24.044Z,99504.31
2023-04-05T05:10:56.321Z,99507.72
2023-04-05T05:12:28.499Z,99503.44
2023-04-05T05:14:00.735Z,99505.13
2023-04-05T05:15:32.899Z,99510.25
2023-04-05T05:17:07.013Z,99511.09
2023-04-05T05:18:42.068Z,99511.94
2023-04-05T05:20:14.167Z,99507.66
2023-04-05T05:21:47.421Z,99505.94
2023-04-05T05:23:21.689Z,99506.78
2023-04-05T05:24:54.329Z,99511.91
2023-04-05T05:26:26.848Z,99509.34
2023-04-05T05:27:59.040Z,99511.06
2023-04-05T05:29:31.206Z,99511.06
2023-04-05T05:31:04.539Z,99512.75
2023-04-05T05:32:36.723Z,99514.47
2023-04-05T05:34:08.876Z,99511.03
2023-04-05T05:35:41.347Z,99508.47
2023-04-05T05:37:13.627Z,99508.47
2023-04-05T05:38:45.758Z,99517.03
2023-04-05T05:40:17.924Z,99515.28
2023-04-05T05:41:50.693Z,99500.72
2023-04-05T05:43:22.754Z,99510.13
2023-04-05T05:44:54.877Z,99507.53
2023-04-05T05:46:27.206Z,99507.53
2023-04-05T05:47:59.474Z,99510.13
2023-04-05T05:49:31.890Z,99511.81
2023-04-05T05:51:09.984Z,99505.81
2023-04-05T05:52:42.139Z,99508.38
2023-04-05T05:54:14.246Z,99509.25
2023-04-05T05:55:47.074Z,99506.66
2023-04-05T05:57:19.235Z,99509.22
2023-04-05T05:58:51.454Z,99508.31
2023-04-05T06:00:23.753Z,99511.78
2023-04-05T06:01:56.019Z,99507.47
2023-04-05T06:03:30.261Z,99512.63
2023-04-05T06:05:05.413Z,99511.78
2023-04-05T06:06:37.912Z,99516.03
2023-04-05T06:08:10.173Z,99517.75
2023-04-05T06:09:42.439Z,99515.16
2023-04-05T06:11:18.727Z,99511.66
2023-04-05T06:12:51.542Z,99515.13
2023-04-05T06:15:56.559Z,99512.50
2023-04-05T06:17:29.092Z,99526.16
2023-04-05T06:19:01.993Z,99519.31
2023-04-05T06:20:34.197Z,99518.47
2023-04-05T06:22:06.357Z,99515.03
2023-04-05T06:23:38.562Z,99522.69
2023-04-05T06:25:12.825Z,99520.13
2023-04-05T06:26:45.101Z,99524.38
2023-04-05T06:28:17.262Z,99520.06
2023-04-05T06:29:49.389Z,99518.34
2023-04-05T06:31:27.701Z,99520.03
2023-04-05T06:33:00.901Z,99520.03
2023-04-05T06:34:33.096Z,99519.16
2023-04-05T06:36:05.364Z,99521.72
2023-04-05T06:37:37.524Z,99519.13
2023-04-05T06:39:09.922Z,99524.25
2023-04-05T06:40:42.310Z,99516.53
2023-04-05T06:42:14.715Z,99519.88
2023-04-05T06:43:46.815Z,99530.13
2023-04-05T06:45:20.259Z,99530.97
2023-04-05T06:46:52.380Z,99521.53
2023-04-05T06:48:25.745Z,99530.09
2023-04-05T06:49:57.859Z,99531.81
2023-04-05T06:51:30.024Z,99535.22
2023-04-05T06:53:03.532Z,99533.44
2023-04-05T06:54:35.801Z,99540.22
2023-04-05T06:56:08.542Z,99538.53
2023-04-05T06:57:40.685Z,99540.22
2023-04-05T06:59:12.882Z,99542.78
2023-04-05T07:00:45.063Z,99535.91
2023-04-05T07:02:17.297Z,99542.75
2023-04-05T07:03:49.471Z,99543.56
2023-04-05T07:05:21.591Z,99547.00
2023-04-05T07:06:54.403Z,99544.41
2023-04-05T07:08:27.962Z,99547.81
2023-04-05T07:10:00.349Z,99546.13
2023-04-05T07:11:33.380Z,99543.50
2023-04-05T07:13:05.751Z,99546.94
2023-04-05T07:14:38.600Z,99551.19
2023-04-05T07:16:10.733Z,99558.09
2023-04-05T07:17:43.015Z,99558.91
2023-04-05T07:19:15.631Z,99561.47
2023-04-05T07:20:49.884Z,99558.81
2023-04-05T07:22:21.956Z,99567.44
2023-04-05T07:23:59.448Z,99570.00
2023-04-05T07:25:32.272Z,99567.41
2023-04-05T07:27:04.723Z,99573.34
2023-04-05T07:28:36.903Z,99569.94
2023-04-05T07:30:09.608Z,99572.47
2023-04-05T07:31:41.849Z,99574.19
2023-04-05T07:33:14.259Z,99567.34
2023-04-05T07:34:47.059Z,99576.81
2023-04-05T07:36:19.340Z,99571.63
2023-04-05T07:37:51.637Z,99573.34
2023-04-05T07:39:23.801Z,99567.31
2023-04-05T07:40:56.119Z,99577.59
2023-04-05T07:42:28.675Z,99570.75
2023-04-05T07:44:00.854Z,99575.03
2023-04-05T07:45:32.950Z,99586.22
2023-04-05T07:47:05.128Z,99581.06
2023-04-05T07:48:40.532Z,99581.91
2023-04-05T07:50:15.628Z,99578.44
2023-04-05T07:51:48.609Z,99587.84
2023-04-05T07:53:20.972Z,99588.69
2023-04-05T07:54:53.130Z,99592.19
2023-04-05T07:56:25.357Z,99586.19
2023-04-05T07:57:58.855Z,99589.72
2023-04-05T07:59:30.987Z,99593.84
2023-04-05T08:01:04.425Z,99593.91
2023-04-05T08:02:36.463Z,99598.16
2023-04-05T08:04:08.910Z,99596.50
2023-04-05T08:05:41.284Z,99599.97
2023-04-05T08:07:13.604Z,99597.38
2023-04-05T08:08:46.809Z,99595.63
2023-04-05T08:10:18.981Z,99601.69
2023-04-05T08:11:54.183Z,99596.53
2023-04-05T08:13:26.549Z,99600.84
2023-04-05T08:14:58.929Z,99605.19
2023-04-05T08:16:31.245Z,99600.88
2023-04-05T08:18:03.550Z,99593.13
2023-04-05T08:19:35.738Z,99599.06
2023-04-05T08:21:07.906Z,99598.22
2023-04-05T08:22:39.960Z,99600.78
2023-04-05T08:24:12.134Z,99611.94
2023-04-05T08:25:44.983Z,99606.78
2023-04-05T08:27:17.520Z,99605.94
2023-04-05T08:28:49.628Z,99611.94
2023-04-05T08:30:22.355Z,99609.38
2023-04-05T08:31:58.220Z,99608.53
2023-04-05T08:33:31.502Z,99612.00
2023-04-05T08:35:03.744Z,99610.31
2023-04-05T08:36:35.918Z,99612.00
2023-04-05T08:38:08.599Z,99611.16
2023-04-05T08:39:40.746Z,99611.22
2023-04-05T08:41:19.336Z,99620.63
2023-04-05T08:42:58.126Z,99616.28
2023-04-05T08:44:31.765Z,99613.75
2023-04-05T08:46:04.462Z,99620.63
2023-04-05T08:47:39.482Z,99619.78
2023-04-05T08:49:12.030Z,99617.22
2023-04-05T08:50:51.291Z,99616.31
2023-04-05T08:52:23.643Z,99614.59
2023-04-05T08:53:56.567Z,99619.69
2023-04-05T08:55:29.301Z,99612.78
2023-04-05T08:57:04.445Z,99612.00
2023-04-05T08:58:38.306Z,99612.78
2023-04-05T09:00:10.938Z,99612.78
2023-04-05T09:01:44.406Z,99617.03
2023-04-05T09:03:17.411Z,99611.81
2023-04-05T09:04:50.125Z,99613.50
2023-04-05T09:06:22.729Z,99608.34
2023-04-05T09:07:56.053Z,99607.47
2023-04-05T09:09:31.342Z,99609.19
2023-04-05T09:11:03.572Z,99614.28
2023-04-05T09:12:36.465Z,99613.41
2023-04-05T09:14:09.181Z,99620.28
2023-04-05T09:15:41.968Z,99612.53
2023-04-05T09:17:14.401Z,99610.78
2023-04-05T09:18:46.623Z,99615.06
2023-04-05T09:20:18.944Z,99614.22
2023-04-05T09:22:06.628Z,99612.41
2023-04-05T09:23:38.813Z,99616.91
2023-04-05T09:25:11.036Z,99615.31
2023-04-05T09:28:16.912Z,99612.59
2023-04-05T09:29:50.500Z,99619.56
2023-04-05T09:31:36.957Z,99619.56
2023-04-05T09:33:10.812Z,99616.94
2023-04-05T09:34:44.289Z,99617.69
2023-04-05T09:36:18.282Z,99612.47
2023-04-05T09:37:53.804Z,99609.81
2023-04-05T09:39:32.977Z,99611.41
2023-04-05T09:41:09.893Z,99619.88
2023-04-05T09:42:46.474Z,99613.78
2023-04-05T09:44:18.665Z,99616.44
2023-04-05T09:45:50.888Z,99613.84
2023-04-05T09:47:31.679Z,99618.06
2023-04-05T09:49:04.448Z,99619.78
2023-04-05T09:50:37.056Z,99619.88
2023-04-05T09:52:25.969Z,99620.63
2023-04-05T09:54:04.276Z,99618.84
2023-04-05T09:55:37.353Z,99605.13
2023-04-05T09:57:10.973Z,99605.16
2023-04-05T09:58:43.080Z,99615.47
2023-04-05T10:00:19.952Z,99611.97
2023-04-05T10:01:52.418Z,99609.41
2023-04-05T10:03:27.929Z,99611.06
2023-04-05T10:05:12.817Z,99614.53
2023-04-05T10:06:44.903Z,99619.72
2023-04-05T10:08:17.601Z,99618.88
2023-04-05T10:09:49.740Z,99618.09
2023-04-05T10:11:22.587Z,99614.56
2023-04-05T10:12:54.917Z,99616.22
2023-04-05T10:14:27.368Z,99609.31
2023-04-05T10:16:04.101Z,99616.16
2023-04-05T10:18:01.266Z,99617.81
2023-04-05T10:20:09.909Z,99618.66
2023-04-05T10:21:43.773Z,99610.94
2023-04-05T10:23:23.737Z,99618.66
2023-04-05T10:25:03.852Z,99619.63
2023-04-05T10:26:58.132Z,99616.19
2023-04-05T10:28:38.254Z,99610.94
2023-04-05T10:30:10.674Z,99605.75
2023-04-05T10:31:59.357Z,99612.56
2023-04-05T10:33:39.983Z,99607.34
2023-04-05T10:35:18.223Z,99603.06
2023-04-05T10:36:56.325Z,99610.81
2023-04-05T10:38:30.321Z,99608.25
2023-04-05T10:40:04.873Z,99610.09
2023-04-05T10:41:48.210Z,99602.38
2023-04-05T10:43:24.125Z,99610.06
2023-04-05T10:45:05.026Z,99607.44
2023-04-05T10:46:38.186Z,99608.34
2023-04-05T10:48:33.337Z,99611.81
2023-04-05T10:50:09.374Z,99608.34
2023-04-05T10:51:44.279Z,99604.91
2023-04-05T10:53:17.133Z,99611.00
2023-04-05T10:54:49.809Z,99609.25
2023-04-05T10:56:22.497Z,99617.81
2023-04-05T10:57:55.269Z,99607.50
2023-04-05T10:59:28.460Z,99616.09
2023-04-05T11:01:01.234Z,99621.31
2023-04-05T11:02:33.875Z,99615.28
2023-04-05T11:04:13.649Z,99618.66
2023-04-05T11:05:45.855Z,99619.63
2023-04-05T11:07:19.773Z,99618.75
2023-04-05T11:08:56.334Z,99617.06
2023-04-05T11:10:28.751Z,99612.78
2023-04-05T11:12:01.451Z,99611.91
2023-04-05T11:13:58.970Z,99618.66
2023-04-05T11:15:35.138Z,99614.47
2023-04-05T11:17:25.121Z,99611.16
2023-04-05T11:18:57.280Z,99612.94
2023-04-05T11:20:43.922Z,99613.72
2023-04-05T11:22:27.005Z,99615.41
2023-04-05T11:24:07.652Z,99616.22
2023-04-05T11:25:41.017Z,99616.22
2023-04-05T11:27:13.321Z,99611.91
2023-04-05T11:28:45.490Z,99609.31
2023-04-05T11:30:46.858Z,99611.88
2023-04-05T11:32:19.002Z,99611.06
2023-04-05T11:33:56.258Z,99614.47
2023-04-05T11:35:35.559Z,99610.16
2023-04-05T11:37:07.801Z,99611.03
2023-04-05T11:38:43.136Z,99618.66
2023-04-05T11:42:12.465Z,99614.19
2023-04-05T11:43:45.527Z,99606.50
2023-04-05T11:45:19.876Z,99615.06
2023-04-05T11:46:53.550Z,99608.16
2023-04-05T11:48:26.834Z,99612.47
2023-04-05T11:49:59.837Z,99607.25
2023-04-05T11:51:32.637Z,99612.44
2023-04-05T11:53:19.983Z,99616.91
2023-04-05T11:54:52.853Z,99615.22
2023-04-05T11:56:25.127Z,99617.88
2023-04-05T11:57:57.505Z,99623.06
2023-04-05T11:59:31.123Z,99617.94
2023-04-05T12:01:10.166Z,99618.72
2023-04-05T12:02:45.181Z,99618.75
2023-04-05T12:04:18.593Z,99617.13
2023-04-05T12:05:52.307Z,99623.09
2023-04-05T12:07:29.338Z,99627.28
2023-04-05T12:09:01.548Z,99615.25
2023-04-05T12:10:33.829Z,99617.75
2023-04-05T12:12:07.106Z,99615.16
2023-04-05T12:13:40.010Z,99614.25
2023-04-05T12:15:19.362Z,99613.50
2023-04-05T12:16:51.675Z,99617.00
2023-04-05T12:18:26.190Z,99619.50
2023-04-05T12:19:58.362Z,99618.59
2023-04-05T12:21:31.063Z,99615.91
2023-04-05T12:23:04.102Z,99616.72
2023-04-05T12:24:36.548Z,99611.56
2023-04-05T12:26:09.038Z,99618.47
2023-04-05T12:27:41.519Z,99612.47
2023-04-05T12:29:13.570Z,99609.00
2023-04-05T12:30:49.740Z,99608.09
2023-04-05T12:32:22.829Z,99612.44
2023-04-05T12:33:59.894Z,99605.50
2023-04-05T12:35:35.514Z,99607.22
2023-04-05T12:37:07.723Z,99605.50
2023-04-05T12:38:40.835Z,99609.75
2023-04-05T12:40:13.888Z,99608.06
2023-04-05T12:41:46.621Z,99609.81
2023-04-05T12:43:20.482Z,99610.72
2023-04-05T12:45:04.449Z,99612.34
2023-04-05T12:46:43.722Z,99608.06
2023-04-05T12:48:22.473Z,99604.66
2023-04-05T12:49:55.900Z,99607.22
2023-04-05T12:51:27.869Z,99603.66
2023-04-05T12:53:01.736Z,99604.75
2023-04-05T12:54:34.414Z,99612.44
2023-04-05T12:56:07.625Z,99615.06
2023-04-05T12:57:39.938Z,99611.72
2023-04-05T12:59:12.131Z,99614.25
2023-04-05T13:00:45.665Z,99626.31
2023-04-05T13:02:17.650Z,99615.91
2023-04-05T13:03:53.302Z,99620.31
2023-04-05T13:05:31.082Z,99622.88
2023-04-05T13:07:03.364Z,99624.72
2023-04-05T13:08:35.749Z,99623.91
2023-04-05T13:10:08.832Z,99618.72
2023-04-05T13:11:41.211Z,99620.44
2023-04-05T13:13:17.540Z,99625.63
2023-04-05T13:14:49.686Z,99617.94
2023-04-05T13:16:22.143Z,99620.53
2023-04-05T13:17:55.362Z,99618.81
2023-04-05T13:19:27.612Z,99620.56
2023-04-05T13:20:59.847Z,99619.78
2023-04-05T13:22:32.065Z,99623.22
2023-04-05T13:24:04.297Z,99618.88
2023-04-05T13:25:36.493Z,99623.97
2023-04-05T13:27:08.666Z,99619.63
2023-04-05T13:28:40.894Z,99617.94
2023-04-05T13:30:13.292Z,99617.88
2023-04-05T13:31:45.437Z,99615.38
2023-04-05T13:33:18.657Z,99616.28
2023-04-05T13:34:50.844Z,99613.81
2023-04-05T13:36:22.995Z,99613.84
2023-04-05T13:37:55.144Z,99613.88
2023-04-05T13:39:27.262Z,99613.84
2023-04-05T13:40:59.385Z,99616.44
2023-04-05T13:42:31.551Z,99619.78
2023-04-05T13:44:05.927Z,99623.25
2023-04-05T13:45:39.904Z,99613.72
2023-04-05T13:47:12.195Z,99617.13
2023-04-05T13:48:44.334Z,99619.03
2023-04-05T13:50:16.706Z,99625.09
2023-04-05T13:51:48.829Z,99615.59
2023-04-05T13:53:20.944Z,99621.63
2023-04-05T13:55:02.124Z,99620.78
2023-04-05T13:56:35.969Z,99617.28
2023-04-05T13:58:08.142Z,99623.41
2023-04-05T13:59:40.509Z,99627.78
2023-04-05T14:01:12.890Z,99621.75
2023-04-05T14:02:45.596Z,99624.31
2023-04-05T14:04:18.241Z,99617.50
2023-04-05T14:05:51.725Z,99623.56
2023-04-05T14:07:25.348Z,99627.00
2023-04-05T14:08:57.491Z,99621.88
2023-04-05T14:10:31.277Z,99626.16
2023-04-05T14:12:04.406Z,99630.53
2023-04-05T14:13:36.522Z,99636.56
2023-04-05T14:15:09.075Z,99628.00
2023-04-05T14:16:41.276Z,99634.84
2023-04-05T14:18:13.720Z,99634.09
2023-04-05T14:19:45.930Z,99634.09
2023-04-05T14:21:18.023Z,99634.09
2023-04-05T14:22:50.221Z,99635.84
2023-04-05T14:24:22.473Z,99638.50
2023-04-05T14:25:54.612Z,99645.41
2023-04-05T14:27:28.892Z,99628.31
2023-04-05T14:29:01.264Z,99636.03
2023-04-05T14:30:33.450Z,99637.78
2023-04-05T14:32:05.976Z,99645.50
2023-04-05T14:33:38.170Z,99643.81
2023-04-05T14:35:10.622Z,99637.00
2023-04-05T14:36:42.819Z,99631.03
2023-04-05T14:38:15.166Z,99638.72
2023-04-05T14:39:47.499Z,99637.03
2023-04-05T14:41:19.859Z,99639.56
2023-04-05T14:42:52.047Z,99637.03
2023-04-05T14:44:24.810Z,99629.31
2023-04-05T14:45:56.974Z,99638.88
2023-04-05T14:47:29.211Z,99639.63
2023-04-05T14:49:01.703Z,99645.66
2023-04-05T14:50:33.892Z,99644.88
2023-04-05T14:52:06.192Z,99648.28
2023-04-05T14:53:38.312Z,99643.16
2023-04-05T14:55:10.532Z,99655.19
2023-04-05T14:56:42.668Z,99650.91
2023-04-05T14:58:14.806Z,99653.50
2023-04-05T14:59:46.894Z,99657.00
2023-04-05T15:01:19.192Z,99658.78
2023-04-05T15:02:51.474Z,99652.69
2023-04-05T15:04:23.849Z,99660.44
2023-04-05T15:05:55.938Z,99655.28
2023-04-05T15:09:04.091Z,99654.47
2023-04-05T15:10:38.464Z,99656.06
2023-04-05T15:12:10.646Z,99663.00
2023-04-05T15:13:42.758Z,99672.50
2023-04-05T15:15:14.892Z,99661.44
2023-04-05T15:16:47.076Z,99665.75
2023-04-05T15:18:19.393Z,99666.56
2023-04-05T15:19:51.512Z,99668.25
2023-04-05T15:21:23.639Z,99665.66
2023-04-05T15:22:56.305Z,99667.38
2023-04-05T15:24:28.389Z,99670.84
2023-04-05T15:26:00.502Z,99669.13
2023-04-05T15:27:32.681Z,99676.84
2023-04-05T15:29:04.854Z,99679.50
2023-04-05T15:30:37.173Z,99682.06
2023-04-05T15:32:09.304Z,99682.94
2023-04-05T15:33:41.415Z,99682.06
2023-04-05T15:35:13.568Z,99678.63
2023-04-05T15:36:46.023Z,99684.66
2023-04-05T15:38:18.107Z,99687.19
2023-04-05T15:39:50.617Z,99685.50
2023-04-05T15:41:22.780Z,99685.50
2023-04-05T15:42:55.756Z,99677.75
2023-04-05T15:44:27.968Z,99682.91
2023-04-05T15:46:00.181Z,99688.03
2023-04-05T15:47:32.434Z,99693.19
2023-04-05T15:49:04.913Z,99688.03
2023-04-05T15:50:37.119Z,99691.44
2023-04-05T15:52:10.433Z,99689.75
2023-04-05T15:53:42.629Z,99694.91
2023-04-05T15:55:14.814Z,99692.34
2023-04-05T15:56:47.200Z,99695.75
2023-04-05T15:58:19.401Z,99697.47
2023-04-05T15:59:53.207Z,99692.34
2023-04-05T16:01:25.462Z,99696.72
2023-04-05T16:03:00.737Z,99698.41
2023-04-05T16:04:33.229Z,99701.88
2023-04-05T16:06:05.903Z,99693.31
2023-04-05T16:07:38.084Z,99694.19
2023-04-05T16:09:10.287Z,99695.94
2023-04-05T16:10:43.248Z,99694.22
2023-04-05T16:12:15.796Z,99695.09
2023-04-05T16:13:48.074Z,99698.53
2023-04-05T16:15:20.313Z,99699.41
2023-04-05T16:16:54.449Z,99707.09
2023-04-05T16:18:28.471Z,99700.25
2023-04-05T16:20:00.604Z,99703.69
2023-04-05T16:21:33.133Z,99701.13
2023-04-05T16:24:38.830Z,99700.28
2023-04-05T16:26:11.046Z,99702.88
2023-04-05T16:27:43.237Z,99708.00
2023-04-05T16:29:15.348Z,99702.88
2023-04-05T16:30:48.308Z,99702.03
2023-04-05T16:32:20.525Z,99707.19
2023-04-05T16:33:54.435Z,99708.06
2023-04-05T16:35:29.381Z,99708.06
2023-04-05T16:37:01.641Z,99710.63
2023-04-05T16:38:33.827Z,99714.06
2023-04-05T16:40:08.065Z,99715.81
2023-04-05T16:41:40.166Z,99709.78
2023-04-05T16:43:12.277Z,99711.50
2023-04-05T16:44:44.477Z,99712.34
2023-04-05T16:46:16.725Z,99721.81
2023-04-05T16:47:48.933Z,99717.50
2023-04-05T16:49:21.188Z,99714.94
2023-04-05T16:50:53.341Z,99717.50
2023-04-05T16:53:58.411Z,99714.09
2023-04-05T16:55:30.798Z,99711.50
2023-04-05T16:57:03.201Z,99718.38
2023-04-05T16:58:35.364Z,99719.25
2023-04-05T17:00:08.398Z,99726.09
2023-04-05T17:01:40.795Z,99723.53
2023-04-05T17:03:13.228Z,99723.50
2023-04-05T17:04:46.744Z,99724.38
2023-04-05T17:06:19.038Z,99721.78
2023-04-05T17:07:51.120Z,99726.94
2023-04-05T17:09:23.573Z,99732.09
2023-04-05T17:10:55.701Z,99735.50
2023-04-05T17:12:27.817Z,99731.22
2023-04-05T17:14:00.028Z,99735.50
2023-04-05T17:15:32.216Z,99736.38
2023-04-05T17:17:04.401Z,99732.06
2023-04-05T17:18:40.060Z,99732.06
2023-04-05T17:20:12.575Z,99732.94
2023-04-05T17:21:50.599Z,99732.97
2023-04-05T17:23:22.850Z,99734.69
2023-04-05T17:24:54.984Z,99731.28
2023-04-05T17:26:27.539Z,99731.25
2023-04-05T17:27:59.822Z,99731.28
2023-04-05T17:29:32.022Z,99731.25
2023-04-05T17:31:04.619Z,99738.97
2023-04-05T17:32:36.871Z,99743.25
2023-04-05T17:34:13.494Z,99742.41
2023-04-05T17:35:45.623Z,99748.41
2023-04-05T17:37:17.787Z,99746.69
2023-04-05T17:38:49.865Z,99750.97
2023-04-05T17:40:22.172Z,99755.25
2023-04-05T17:41:57.020Z,99749.28
2023-04-05T17:43:29.283Z,99753.53
2023-04-05T17:45:01.853Z,99750.97
2023-04-05T17:46:42.834Z,99756.97
2023-04-05T17:48:15.378Z,99750.97
2023-04-05T17:49:47.607Z,99762.09
2023-04-05T17:51:21.118Z,99761.28
2023-04-05T17:52:53.384Z,99752.72
2023-04-05T17:54:25.948Z,99767.28
2023-04-05T17:55:58.118Z,99767.28
2023-04-05T17:57:30.396Z,99763.84
2023-04-05T17:59:03.257Z,99763.00
2023-04-05T18:00:35.704Z,99768.13
2023-04-05T18:02:08.145Z,99769.81
2023-04-05T18:03:41.093Z,99763.84
2023-04-05T18:05:13.602Z,99776.69
2023-04-05T18:06:45.776Z,99778.41
2023-04-05T18:08:17.932Z,99776.69
2023-04-05T18:09:50.136Z,99780.13
2023-04-05T18:11:22.299Z,99780.13
2023-04-05T18:12:54.416Z,99771.53
2023-04-05T18:14:26.684Z,99774.13
2023-04-05T18:16:00.263Z,99773.28
2023-04-05T18:17:32.869Z,99777.53
2023-04-05T18:19:05.230Z,99773.28
2023-04-05T18:20:37.851Z,99774.09
2023-04-05T18:22:10.033Z,99776.69
2023-04-05T18:23:42.361Z,99780.13
2023-04-05T18:25:15.997Z,99781.81
2023-04-05T18:26:48.192Z,99780.97
2023-04-05T18:28:23.199Z,99783.53
2023-04-05T18:29:55.725Z,99781.81
2023-04-05T18:31:29.424Z,99777.53
2023-04-05T18:33:01.603Z,99784.41
2023-04-05T18:34:34.966Z,99783.53